createdAt,value
2023-03-17T00:05:14.457Z,5.50
2023-03-17T00:07:46.426Z,5.70
2023-03-17T00:13:15.837Z,5.60
2023-03-17T00:15:43.625Z,5.60
2023-03-17T00:18:18.112Z,5.60
2023-03-17T00:20:48.846Z,5.60
2023-03-17T00:23:18.996Z,5.50
2023-03-17T00:25:47.183Z,5.50
2023-03-17T00:28:19.455Z,5.50
2023-03-17T00:30:47.921Z,5.50
2023-03-17T00:36:22.807Z,5.50
2023-03-17T00:38:51.288Z,5.40
2023-03-17T00:41:25.245Z,5.50
2023-03-17T00:43:52.847Z,5.50
2023-03-17T00:46:28.897Z,5.50
2023-03-17T00:48:56.784Z,5.40
2023-03-17T00:51:30.143Z,5.40
2023-03-17T00:53:59.755Z,5.40
2023-03-17T00:56:27.319Z,5.40
2023-03-17T00:58:54.514Z,5.40
2023-03-17T01:01:26.960Z,5.30
2023-03-17T01:03:57.553Z,5.30
2023-03-17T01:06:24.734Z,5.20
2023-03-17T01:08:52.423Z,5.20
2023-03-17T01:11:26.780Z,5.20
2023-03-17T01:13:53.976Z,5.20
2023-03-17T01:16:21.760Z,5.20
2023-03-17T01:18:51.345Z,5.20
2023-03-17T01:21:18.665Z,5.20
2023-03-17T01:23:49.378Z,5.10
2023-03-17T01:26:17.620Z,5.00
2023-03-17T01:28:49.384Z,5.00
2023-03-17T01:31:17.293Z,5.00
2023-03-17T01:33:51.419Z,5.00
2023-03-17T01:36:51.323Z,5.00
2023-03-17T01:39:37.662Z,4.90
2023-03-17T01:42:05.962Z,4.90
2023-03-17T01:44:33.650Z,4.80
2023-03-17T01:47:01.439Z,4.80
2023-03-17T01:49:44.627Z,4.90
2023-03-17T01:52:21.043Z,4.90
2023-03-17T01:54:59.096Z,4.90
2023-03-17T01:57:34.651Z,4.90
2023-03-17T02:00:32.705Z,4.90
2023-03-17T02:03:00.116Z,4.90
2023-03-17T02:05:33.565Z,4.80
2023-03-17T02:08:04.202Z,4.90
2023-03-17T02:10:34.487Z,4.80
2023-03-17T02:13:05.829Z,4.80
2023-03-17T02:15:45.384Z,4.90
2023-03-17T02:18:13.875Z,4.80
2023-03-17T02:20:44.819Z,4.80
2023-03-17T02:23:12.916Z,4.80
2023-03-17T02:25:44.335Z,4.80
2023-03-17T02:28:16.736Z,4.80
2023-03-17T02:30:51.965Z,4.80
2023-03-17T02:36:04.500Z,4.80
2023-03-17T02:38:35.684Z,4.80
2023-03-17T02:41:03.105Z,4.90
2023-03-17T02:43:30.800Z,4.80
2023-03-17T02:45:58.787Z,4.80
2023-03-17T02:48:26.527Z,4.90
2023-03-17T02:50:56.748Z,4.90
2023-03-17T02:53:24.377Z,4.90
2023-03-17T02:55:51.692Z,4.90
2023-03-17T02:58:20.037Z,4.90
2023-03-17T03:00:48.930Z,5.00
2023-03-17T03:03:16.581Z,5.10
2023-03-17T03:05:43.912Z,5.20
2023-03-17T03:08:11.325Z,5.10
2023-03-17T03:10:38.637Z,5.10
2023-03-17T03:13:08.500Z,5.00
2023-03-17T03:15:41.999Z,5.00
2023-03-17T03:18:10.102Z,4.90
2023-03-17T03:20:37.357Z,4.80
2023-03-17T03:23:07.399Z,4.90
2023-03-17T03:25:37.827Z,5.00
2023-03-17T03:28:06.852Z,5.00
2023-03-17T03:30:34.828Z,4.90
2023-03-17T03:33:05.741Z,4.90
2023-03-17T03:35:35.561Z,4.90
2023-03-17T03:38:02.927Z,4.90
2023-03-17T03:43:23.736Z,4.90
2023-03-17T03:45:54.961Z,4.90
2023-03-17T03:48:29.649Z,4.90
2023-03-17T03:50:59.039Z,4.90
2023-03-17T03:53:29.600Z,4.90
2023-03-17T03:55:56.765Z,4.90
2023-03-17T04:01:20.762Z,4.80
2023-03-17T04:03:47.873Z,4.80
2023-03-17T04:06:16.646Z,4.70
2023-03-17T04:08:46.180Z,4.80
2023-03-17T04:11:19.001Z,4.70
2023-03-17T04:13:49.205Z,4.70
2023-03-17T04:16:17.705Z,4.80
2023-03-17T04:18:47.733Z,4.70
2023-03-17T04:21:18.744Z,4.70
2023-03-17T04:23:46.688Z,4.70
2023-03-17T04:26:13.952Z,4.70
2023-03-17T04:28:41.314Z,4.70
2023-03-17T04:31:11.746Z,4.70
2023-03-17T04:33:41.625Z,4.70
2023-03-17T04:36:15.234Z,4.70
2023-03-17T04:38:44.433Z,4.60
2023-03-17T04:41:12.507Z,4.60
2023-03-17T04:43:40.273Z,4.60
2023-03-17T04:46:07.866Z,4.70
2023-03-17T04:48:35.455Z,4.70
2023-03-17T04:51:02.763Z,4.70
2023-03-17T04:53:30.298Z,4.70
2023-03-17T04:55:57.664Z,4.80
2023-03-17T04:58:30.841Z,4.70
2023-03-17T05:00:59.223Z,4.70
2023-03-17T05:03:28.660Z,4.70
2023-03-17T05:05:57.509Z,4.60
2023-03-17T05:08:31.630Z,4.70
2023-03-17T05:10:59.455Z,4.80
2023-03-17T05:13:28.045Z,4.90
2023-03-17T05:15:56.423Z,4.90
2023-03-17T05:18:25.834Z,4.80
2023-03-17T05:20:53.056Z,4.80
2023-03-17T05:23:26.064Z,4.80
2023-03-17T05:25:56.392Z,4.80
2023-03-17T05:28:23.656Z,4.80
2023-03-17T05:30:51.120Z,4.90
2023-03-17T05:33:23.363Z,5.10
2023-03-17T05:35:51.430Z,5.20
2023-03-17T05:38:21.192Z,5.40
2023-03-17T05:40:51.793Z,5.60
2023-03-17T05:43:19.104Z,5.40
2023-03-17T05:45:47.959Z,5.60
2023-03-17T05:48:17.842Z,5.70
2023-03-17T05:50:47.718Z,5.80
2023-03-17T05:53:18.079Z,5.90
2023-03-17T05:55:45.459Z,6.00
2023-03-17T05:58:13.004Z,6.00
2023-03-17T06:03:38.848Z,6.20
2023-03-17T06:06:06.994Z,6.20
2023-03-17T06:08:34.365Z,6.30
2023-03-17T06:11:02.006Z,6.30
2023-03-17T06:13:38.026Z,6.40
2023-03-17T06:16:10.164Z,6.40
2023-03-17T06:18:37.536Z,6.50
2023-03-17T06:21:04.982Z,6.60
2023-03-17T06:23:33.235Z,6.20
2023-03-17T06:26:00.742Z,6.10
2023-03-17T06:28:28.039Z,6.00
2023-03-17T06:30:58.110Z,6.00
2023-03-17T06:33:26.468Z,5.90
2023-03-17T06:35:53.861Z,5.80
2023-03-17T06:38:24.803Z,5.60
2023-03-17T06:40:51.964Z,5.70
2023-03-17T06:43:19.757Z,5.90
2023-03-17T06:45:47.183Z,6.00
2023-03-17T06:48:15.018Z,5.90
2023-03-17T06:50:42.357Z,6.00
2023-03-17T06:53:23.227Z,5.90
2023-03-17T06:55:51.009Z,6.20
2023-03-17T07:01:04.338Z,5.90
2023-03-17T07:03:33.100Z,6.10
2023-03-17T07:06:00.505Z,6.60
2023-03-17T07:08:30.905Z,6.60
2023-03-17T07:10:59.434Z,6.50
2023-03-17T07:13:27.473Z,6.80
2023-03-17T07:16:00.495Z,7.10
2023-03-17T07:18:27.880Z,7.20
2023-03-17T07:20:55.069Z,7.40
2023-03-17T07:23:26.864Z,7.10
2023-03-17T07:26:07.973Z,7.20
2023-03-17T07:28:40.287Z,7.50
2023-03-17T07:31:14.478Z,7.30
2023-03-17T07:33:42.299Z,7.10
2023-03-17T07:36:10.714Z,7.10
2023-03-17T07:38:41.866Z,7.00
2023-03-17T07:41:11.076Z,6.90
2023-03-17T07:43:38.846Z,7.20
2023-03-17T07:46:06.814Z,7.20
2023-03-17T07:48:34.829Z,7.20
2023-03-17T07:51:02.244Z,7.50
2023-03-17T07:56:25.059Z,7.80
2023-03-17T07:58:53.421Z,7.50
2023-03-17T08:01:25.899Z,7.40
2023-03-17T08:04:04.970Z,7.10
2023-03-17T08:06:33.122Z,7.10
2023-03-17T08:09:00.476Z,7.20
2023-03-17T08:11:29.977Z,7.10
2023-03-17T08:13:57.386Z,7.10
2023-03-17T08:16:24.626Z,7.20
2023-03-17T08:18:52.216Z,7.20
2023-03-17T08:21:19.710Z,7.10
2023-03-17T08:23:47.350Z,7.10
2023-03-17T08:26:15.049Z,7.10
2023-03-17T08:28:47.630Z,7.20
2023-03-17T08:31:18.827Z,7.20
2023-03-17T08:33:54.104Z,7.40
2023-03-17T08:39:17.668Z,7.40
2023-03-17T08:42:04.734Z,7.50
2023-03-17T08:44:35.389Z,8.00
2023-03-17T08:47:03.017Z,8.00
2023-03-17T08:49:31.421Z,8.10
2023-03-17T08:51:58.767Z,8.50
2023-03-17T08:54:26.058Z,8.80
2023-03-17T08:56:53.587Z,8.60
2023-03-17T08:59:30.483Z,8.50
2023-03-17T09:02:03.118Z,8.00
2023-03-17T09:04:30.877Z,8.00
2023-03-17T09:07:03.662Z,8.60
2023-03-17T09:09:33.802Z,8.80
2023-03-17T09:12:09.657Z,8.70
2023-03-17T09:14:43.718Z,8.50
2023-03-17T09:17:16.870Z,8.60
2023-03-17T09:19:49.866Z,8.20
2023-03-17T09:22:19.536Z,8.70
2023-03-17T09:24:49.449Z,8.70
2023-03-17T09:27:17.058Z,8.80
2023-03-17T09:29:46.875Z,8.70
2023-03-17T09:32:14.395Z,9.00
2023-03-17T09:34:42.234Z,9.00
2023-03-17T09:37:11.588Z,8.90
2023-03-17T09:39:42.072Z,8.80
2023-03-17T09:42:33.626Z,9.20
2023-03-17T09:45:23.458Z,9.70
2023-03-17T09:48:10.184Z,9.50
2023-03-17T09:54:06.828Z,9.80
2023-03-17T09:57:22.035Z,9.90
2023-03-17T10:00:08.596Z,9.60
2023-03-17T10:02:40.800Z,9.90
2023-03-17T10:05:17.772Z,10.30
2023-03-17T10:08:31.664Z,10.20
2023-03-17T10:11:11.251Z,10.60
2023-03-17T10:13:41.846Z,10.80
2023-03-17T10:16:15.502Z,11.20
2023-03-17T10:18:51.749Z,11.20
2023-03-17T10:21:29.959Z,11.80
2023-03-17T10:23:58.960Z,11.90
2023-03-17T10:26:42.936Z,11.90
2023-03-17T10:29:19.281Z,11.80
2023-03-17T10:31:48.044Z,10.50
2023-03-17T10:34:23.841Z,9.90
2023-03-17T10:36:55.735Z,10.30
2023-03-17T10:39:32.870Z,10.70
2023-03-17T10:42:08.069Z,10.50
2023-03-17T10:47:46.124Z,10.10
2023-03-17T10:50:25.445Z,10.30
2023-03-17T10:53:03.911Z,10.90
2023-03-17T10:55:52.025Z,11.50
2023-03-17T10:58:25.276Z,11.60
2023-03-17T11:01:00.429Z,10.70
2023-03-17T11:03:44.089Z,10.20
2023-03-17T11:06:35.207Z,10.50
2023-03-17T11:09:16.623Z,10.90
2023-03-17T11:11:59.479Z,10.50
2023-03-17T11:14:37.782Z,10.50
2023-03-17T11:17:55.178Z,12.10
2023-03-17T11:20:33.144Z,12.10
2023-03-17T11:23:15.286Z,12.00
2023-03-17T11:25:53.330Z,12.20
2023-03-17T11:28:49.700Z,11.80
2023-03-17T11:31:40.051Z,12.50
2023-03-17T11:34:36.978Z,13.40
2023-03-17T11:37:51.457Z,13.00
2023-03-17T11:40:29.696Z,11.70
2023-03-17T11:43:29.823Z,11.60
2023-03-17T11:46:08.954Z,10.90
2023-03-17T11:49:06.979Z,11.30
2023-03-17T11:52:05.922Z,11.40
2023-03-17T11:54:49.100Z,11.90
2023-03-17T11:57:32.510Z,11.70
2023-03-17T12:00:17.180Z,12.00
2023-03-17T12:03:01.244Z,12.30
2023-03-17T12:05:30.260Z,11.80
2023-03-17T12:08:09.938Z,12.50
2023-03-17T12:10:51.701Z,12.60
2023-03-17T12:14:05.449Z,12.60
2023-03-17T12:16:43.555Z,12.90
2023-03-17T12:19:19.992Z,12.80
2023-03-17T12:22:32.466Z,14.60
2023-03-17T12:25:18.204Z,17.80
2023-03-17T12:28:12.015Z,18.10
2023-03-17T12:30:54.700Z,19.70
2023-03-17T12:33:32.467Z,17.20
2023-03-17T12:36:11.769Z,17.50
2023-03-17T12:38:47.056Z,18.00
2023-03-17T12:41:56.885Z,17.50
2023-03-17T12:45:29.753Z,18.20
2023-03-17T12:48:15.214Z,18.30
2023-03-17T12:51:38.427Z,16.20
2023-03-17T12:54:27.397Z,17.40
2023-03-17T13:00:10.946Z,18.30
2023-03-17T13:02:39.623Z,18.80
2023-03-17T13:05:13.243Z,16.60
2023-03-17T13:07:54.319Z,16.10
2023-03-17T13:10:43.993Z,16.50
2023-03-17T13:13:23.346Z,19.00
2023-03-17T13:15:59.019Z,17.00
2023-03-17T13:18:35.981Z,13.80
2023-03-17T13:21:04.265Z,12.90
2023-03-17T13:24:04.675Z,14.20
2023-03-17T13:26:59.555Z,16.80
2023-03-17T13:29:32.842Z,17.90
2023-03-17T13:32:26.414Z,19.20
2023-03-17T13:35:29.363Z,17.00
2023-03-17T13:38:17.487Z,18.30
2023-03-17T13:41:50.488Z,18.00
2023-03-17T13:44:32.797Z,19.90
2023-03-17T13:47:25.765Z,22.50
2023-03-17T13:49:59.270Z,17.70
2023-03-17T13:52:36.693Z,16.50
2023-03-17T13:55:24.059Z,15.30
2023-03-17T14:01:00.051Z,17.50
2023-03-17T14:03:30.124Z,14.80
2023-03-17T14:06:01.049Z,12.90
2023-03-17T14:08:33.121Z,13.60
2023-03-17T14:11:03.441Z,13.10
2023-03-17T14:13:42.180Z,13.60
2023-03-17T14:16:23.381Z,13.50
2023-03-17T14:19:14.597Z,12.20
2023-03-17T14:21:41.862Z,12.70
2023-03-17T14:24:24.829Z,12.10
2023-03-17T14:26:53.627Z,12.30
2023-03-17T14:29:27.372Z,12.60
2023-03-17T14:32:07.633Z,12.80
2023-03-17T14:37:20.457Z,13.10
2023-03-17T14:43:12.374Z,16.80
2023-03-17T14:48:39.755Z,13.40
2023-03-17T14:51:14.951Z,12.50
2023-03-17T14:54:00.306Z,12.50
2023-03-17T14:56:43.888Z,12.80
2023-03-17T14:59:32.141Z,13.00
2023-03-17T15:02:44.470Z,13.10
2023-03-17T15:05:37.571Z,12.90
2023-03-17T15:08:46.454Z,12.70
2023-03-17T15:11:22.687Z,12.70
2023-03-17T15:13:56.616Z,12.80
2023-03-17T15:16:30.174Z,12.90
2023-03-17T15:19:42.994Z,12.90
2023-03-17T15:22:37.403Z,12.90
2023-03-17T15:25:31.769Z,12.90
2023-03-17T15:27:59.720Z,12.80
2023-03-17T15:30:48.409Z,12.70
2023-03-17T15:33:34.096Z,12.70
2023-03-17T15:36:05.405Z,12.70
2023-03-17T15:38:56.016Z,12.70
2023-03-17T15:41:23.313Z,12.70
2023-03-17T15:43:51.125Z,12.70
2023-03-17T15:46:27.554Z,12.70
2023-03-17T15:48:55.054Z,12.80
2023-03-17T15:51:22.862Z,12.80
2023-03-17T15:53:54.951Z,12.80
2023-03-17T15:56:26.074Z,12.60
2023-03-17T15:58:56.534Z,12.40
2023-03-17T16:01:27.300Z,12.40
2023-03-17T16:03:58.981Z,12.20
2023-03-17T16:06:26.685Z,12.10
2023-03-17T16:08:53.995Z,11.70
2023-03-17T16:11:28.581Z,11.80
2023-03-17T16:14:00.009Z,11.80
2023-03-17T16:16:30.085Z,11.70
2023-03-17T16:18:58.399Z,11.70
2023-03-17T16:21:25.783Z,11.50
2023-03-17T16:24:07.808Z,11.20
2023-03-17T16:26:53.157Z,11.30
2023-03-17T16:29:25.947Z,10.70
2023-03-17T16:32:11.828Z,10.70
2023-03-17T16:34:46.198Z,10.70
2023-03-17T16:37:23.649Z,10.80
2023-03-17T16:40:07.822Z,10.60
2023-03-17T16:42:41.226Z,10.60
2023-03-17T16:45:15.446Z,10.40
2023-03-17T16:47:42.614Z,10.50
2023-03-17T16:50:18.028Z,10.40
2023-03-17T16:52:48.237Z,10.40
2023-03-17T16:55:25.232Z,10.40
2023-03-17T16:57:55.643Z,10.30
2023-03-17T17:00:34.969Z,10.30
2023-03-17T17:03:15.935Z,10.30
2023-03-17T17:05:53.768Z,10.30
2023-03-17T17:08:24.300Z,10.20
2023-03-17T17:11:07.517Z,10.00
2023-03-17T17:13:37.721Z,10.00
2023-03-17T17:16:08.709Z,10.00
2023-03-17T17:18:39.676Z,10.00
2023-03-17T17:21:13.924Z,9.90
2023-03-17T17:24:00.843Z,10.00
2023-03-17T17:26:30.139Z,10.00
2023-03-17T17:31:57.534Z,9.70
2023-03-17T17:34:40.226Z,9.60
2023-03-17T17:37:11.313Z,9.50
2023-03-17T17:39:38.536Z,9.40
2023-03-17T17:42:05.951Z,9.50
2023-03-17T17:44:33.198Z,9.50
2023-03-17T17:47:02.561Z,9.40
2023-03-17T17:49:35.301Z,9.40
2023-03-17T17:52:04.967Z,9.30
2023-03-17T17:54:40.588Z,9.40
2023-03-17T17:57:13.227Z,9.50
2023-03-17T17:59:52.090Z,9.50
2023-03-17T18:02:22.459Z,9.40
2023-03-17T18:04:49.783Z,9.20
2023-03-17T18:07:17.380Z,9.10
2023-03-17T18:09:44.718Z,9.10
2023-03-17T18:12:11.953Z,9.00
2023-03-17T18:14:39.131Z,9.00
2023-03-17T18:19:55.600Z,9.00
2023-03-17T18:22:22.861Z,8.90
2023-03-17T18:24:50.526Z,8.90
2023-03-17T18:27:17.833Z,8.90
2023-03-17T18:29:45.429Z,8.80
2023-03-17T18:32:13.113Z,8.80
2023-03-17T18:34:45.280Z,8.90
2023-03-17T18:37:15.483Z,8.90
2023-03-17T18:39:43.109Z,8.90
2023-03-17T18:50:26.693Z,8.90
2023-03-17T18:52:53.932Z,8.90
2023-03-17T18:55:21.418Z,8.80
2023-03-17T18:57:48.730Z,8.90
2023-03-17T19:00:22.432Z,8.80
2023-03-17T19:08:25.503Z,8.80
2023-03-17T19:10:55.629Z,8.70
2023-03-17T19:13:26.090Z,8.80
2023-03-17T19:15:53.941Z,8.80
2023-03-17T19:18:21.528Z,8.80
2023-03-17T19:20:49.162Z,8.80
2023-03-17T19:23:22.308Z,8.80
2023-03-17T19:25:50.302Z,8.80
2023-03-17T19:28:20.844Z,8.90
2023-03-17T19:30:50.979Z,8.80
2023-03-17T19:33:18.801Z,8.80
2023-03-17T19:35:57.186Z,8.70
2023-03-17T19:38:26.198Z,8.70
2023-03-17T19:40:53.755Z,8.50
2023-03-17T19:43:39.134Z,8.60
2023-03-17T19:46:11.067Z,8.50
2023-03-17T19:48:38.910Z,8.50
2023-03-17T19:51:06.990Z,8.30
2023-03-17T19:53:34.332Z,8.20
2023-03-17T19:56:01.602Z,8.30
2023-03-17T19:58:28.893Z,8.30
2023-03-17T20:00:56.410Z,8.30
2023-03-17T20:03:26.054Z,8.40
2023-03-17T20:05:53.591Z,8.50
2023-03-17T20:08:22.552Z,8.40
2023-03-17T20:10:54.038Z,8.30
2023-03-17T20:13:22.217Z,8.30
2023-03-17T20:15:51.466Z,8.20
2023-03-17T20:18:27.940Z,8.20
2023-03-17T20:20:57.541Z,8.10
2023-03-17T20:23:25.627Z,8.00
2023-03-17T20:25:53.915Z,8.00
2023-03-17T20:31:08.557Z,8.00
2023-03-17T20:33:36.133Z,8.00
2023-03-17T20:36:04.876Z,8.00
2023-03-17T20:38:33.820Z,8.00
2023-03-17T20:41:16.055Z,8.00
2023-03-17T20:43:46.162Z,7.80
2023-03-17T20:46:19.754Z,7.90
2023-03-17T20:48:52.216Z,8.10
2023-03-17T20:51:20.140Z,7.80
2023-03-17T20:53:49.994Z,7.70
2023-03-17T20:56:21.304Z,7.70
2023-03-17T21:01:36.921Z,7.90
2023-03-17T21:04:09.960Z,7.90
2023-03-17T21:06:38.737Z,8.00
2023-03-17T21:09:06.382Z,8.00
2023-03-17T21:11:34.052Z,8.00
2023-03-17T21:14:03.478Z,7.90
2023-03-17T21:16:30.941Z,7.70
2023-03-17T21:18:59.006Z,7.60
2023-03-17T21:21:27.396Z,7.40
2023-03-17T21:23:55.879Z,7.30
2023-03-17T21:26:23.414Z,7.30
2023-03-17T21:28:50.750Z,7.40
2023-03-17T21:31:18.020Z,7.50
2023-03-17T21:33:45.426Z,7.50
2023-03-17T21:36:12.790Z,7.10
2023-03-17T21:38:42.675Z,7.30
2023-03-17T21:41:38.119Z,7.40
2023-03-17T21:44:07.962Z,7.40
2023-03-17T21:46:38.302Z,7.40
2023-03-17T21:49:05.955Z,7.40
2023-03-17T21:51:41.942Z,7.30
2023-03-17T21:54:35.221Z,7.20
2023-03-17T21:59:52.355Z,7.20
2023-03-17T22:02:21.021Z,6.80
2023-03-17T22:04:48.970Z,6.90
2023-03-17T22:07:17.995Z,6.70
2023-03-17T22:09:45.747Z,6.60
2023-03-17T22:12:13.805Z,6.50
2023-03-17T22:14:42.044Z,6.10
2023-03-17T22:17:09.292Z,6.10
2023-03-17T22:19:36.611Z,5.90
2023-03-17T22:22:06.242Z,5.80
2023-03-17T22:24:33.477Z,5.90
2023-03-17T22:27:00.778Z,5.80
2023-03-17T22:29:28.137Z,5.80
2023-03-17T22:31:58.426Z,5.70
2023-03-17T22:34:27.830Z,5.80
2023-03-17T22:36:57.345Z,5.70
2023-03-17T22:39:25.501Z,5.70
2023-03-17T22:41:52.641Z,5.70
2023-03-17T22:44:19.858Z,5.60
2023-03-17T22:46:47.070Z,5.70
2023-03-17T22:49:14.247Z,5.70
2023-03-17T22:51:41.481Z,5.80
2023-03-17T22:54:11.385Z,5.80
2023-03-17T22:56:41.524Z,5.80
2023-03-17T22:59:08.745Z,5.90
2023-03-17T23:01:36.212Z,5.90
2023-03-17T23:04:03.404Z,6.10
2023-03-17T23:06:30.935Z,6.20
2023-03-17T23:08:58.099Z,6.30
2023-03-17T23:11:26.959Z,6.30
2023-03-17T23:16:45.170Z,6.10
2023-03-17T23:19:12.565Z,5.90
2023-03-17T23:21:40.115Z,5.80
2023-03-17T23:24:10.636Z,6.00
2023-03-17T23:26:38.220Z,6.00
2023-03-17T23:29:10.633Z,5.90
2023-03-17T23:31:38.539Z,6.00
2023-03-17T23:34:07.185Z,5.90
2023-03-17T23:36:35.528Z,5.90
2023-03-17T23:39:06.971Z,5.90
2023-03-17T23:41:34.111Z,5.70
2023-03-17T23:44:01.287Z,5.70
2023-03-17T23:46:29.170Z,5.70
2023-03-17T23:48:56.579Z,5.80
2023-03-17T23:51:26.211Z,5.70
2023-03-17T23:53:54.524Z,5.70
2023-03-17T23:56:21.736Z,5.70
2023-03-17T23:58:49.065Z,5.60
